sensor_id;sensor_type;location;lat;lon;timestamp;P1;durP1;ratioP1;P2;durP2;ratioP2
70416;SDS011;57839;51.332;12.410;2023-06-24T00:01:26;20.23;;;16.38;;
70416;SDS011;57839;51.332;12.410;2023-06-24T00:03:51;24.75;;;16.80;;
70416;SDS011;57839;51.332;12.410;2023-06-24T00:06:21;19.80;;;17.65;;
70416;SDS011;57839;51.332;12.410;2023-06-24T00:08:50;19.23;;;17.00;;
70416;SDS011;57839;51.332;12.410;2023-06-24T00:11:16;23.50;;;17.98;;
70416;SDS011;57839;51.332;12.410;2023-06-24T00:13:42;21.63;;;17.95;;
70416;SDS011;57839;51.332;12.410;2023-06-24T00:16:08;24.83;;;17.33;;
70416;SDS011;57839;51.332;12.410;2023-06-24T00:18:35;25.58;;;17.65;;
70416;SDS011;57839;51.332;12.410;2023-06-24T00:21:01;25.08;;;18.25;;
70416;SDS011;57839;51.332;12.410;2023-06-24T00:23:28;25.13;;;17.80;;
70416;SDS011;57839;51.332;12.410;2023-06-24T00:25:55;24.85;;;15.95;;
70416;SDS011;57839;51.332;12.410;2023-06-24T00:28:21;31.02;;;18.60;;
70416;SDS011;57839;51.332;12.410;2023-06-24T00:30:48;21.10;;;16.33;;
70416;SDS011;57839;51.332;12.410;2023-06-24T00:33:14;23.67;;;16.80;;
70416;SDS011;57839;51.332;12.410;2023-06-24T00:35:40;23.75;;;16.02;;
70416;SDS011;57839;51.332;12.410;2023-06-24T00:38:06;26.33;;;17.73;;
70416;SDS011;57839;51.332;12.410;2023-06-24T00:40:32;26.60;;;17.90;;
70416;SDS011;57839;51.332;12.410;2023-06-24T00:42:58;24.50;;;16.73;;
70416;SDS011;57839;51.332;12.410;2023-06-24T00:45:24;20.05;;;14.32;;
70416;SDS011;57839;51.332;12.410;2023-06-24T00:47:50;21.55;;;16.35;;
70416;SDS011;57839;51.332;12.410;2023-06-24T00:50:17;19.10;;;14.48;;
70416;SDS011;57839;51.332;12.410;2023-06-24T00:52:43;22.85;;;16.42;;
70416;SDS011;57839;51.332;12.410;2023-06-24T00:55:12;25.63;;;16.55;;
70416;SDS011;57839;51.332;12.410;2023-06-24T00:57:39;17.60;;;13.27;;
70416;SDS011;57839;51.332;12.410;2023-06-24T01:00:11;19.88;;;15.02;;
70416;SDS011;57839;51.332;12.410;2023-06-24T01:02:40;19.10;;;15.00;;
70416;SDS011;57839;51.332;12.410;2023-06-24T01:05:07;18.63;;;14.27;;
70416;SDS011;57839;51.332;12.410;2023-06-24T01:07:34;21.50;;;15.45;;
70416;SDS011;57839;51.332;12.410;2023-06-24T01:10:03;20.80;;;16.08;;
70416;SDS011;57839;51.332;12.410;2023-06-24T01:12:33;18.77;;;13.90;;
70416;SDS011;57839;51.332;12.410;2023-06-24T01:14:59;20.70;;;14.57;;
70416;SDS011;57839;51.332;12.410;2023-06-24T01:17:31;19.85;;;14.05;;
70416;SDS011;57839;51.332;12.410;2023-06-24T01:20:23;19.30;;;14.13;;
70416;SDS011;57839;51.332;12.410;2023-06-24T01:36:55;17.33;;;13.15;;
70416;SDS011;57839;51.332;12.410;2023-06-24T01:39:26;18.30;;;13.40;;
70416;SDS011;57839;51.332;12.410;2023-06-24T01:41:59;18.33;;;13.68;;
70416;SDS011;57839;51.332;12.410;2023-06-24T01:44:28;15.32;;;12.18;;
70416;SDS011;57839;51.332;12.410;2023-06-24T01:46:55;15.55;;;12.18;;
70416;SDS011;57839;51.332;12.410;2023-06-24T01:49:23;18.98;;;13.20;;
70416;SDS011;57839;51.332;12.410;2023-06-24T01:51:49;16.33;;;12.85;;
70416;SDS011;57839;51.332;12.410;2023-06-24T01:54:16;17.02;;;13.73;;
70416;SDS011;57839;51.332;12.410;2023-06-24T01:56:44;18.25;;;11.95;;
70416;SDS011;57839;51.332;12.410;2023-06-24T01:59:13;17.20;;;14.15;;
70416;SDS011;57839;51.332;12.410;2023-06-24T02:01:39;23.65;;;15.45;;
70416;SDS011;57839;51.332;12.410;2023-06-24T02:04:06;20.95;;;14.98;;
70416;SDS011;57839;51.332;12.410;2023-06-24T02:06:34;19.55;;;12.73;;
70416;SDS011;57839;51.332;12.410;2023-06-24T02:09:00;17.38;;;13.02;;
70416;SDS011;57839;51.332;12.410;2023-06-24T02:11:27;16.27;;;11.77;;
70416;SDS011;57839;51.332;12.410;2023-06-24T02:13:53;19.77;;;13.18;;
70416;SDS011;57839;51.332;12.410;2023-06-24T02:16:20;18.55;;;12.88;;
70416;SDS011;57839;51.332;12.410;2023-06-24T02:18:46;20.70;;;13.98;;
70416;SDS011;57839;51.332;12.410;2023-06-24T02:21:14;18.98;;;12.80;;
70416;SDS011;57839;51.332;12.410;2023-06-24T02:23:43;15.57;;;13.13;;
70416;SDS011;57839;51.332;12.410;2023-06-24T02:26:09;16.13;;;12.35;;
70416;SDS011;57839;51.332;12.410;2023-06-24T02:28:34;16.58;;;11.93;;
70416;SDS011;57839;51.332;12.410;2023-06-24T02:31:01;16.67;;;12.20;;
70416;SDS011;57839;51.332;12.410;2023-06-24T02:33:27;17.50;;;11.95;;
70416;SDS011;57839;51.332;12.410;2023-06-24T02:35:52;19.23;;;12.85;;
70416;SDS011;57839;51.332;12.410;2023-06-24T02:38:18;20.50;;;13.60;;
70416;SDS011;57839;51.332;12.410;2023-06-24T02:40:45;21.40;;;12.63;;
70416;SDS011;57839;51.332;12.410;2023-06-24T02:43:10;14.82;;;11.73;;
70416;SDS011;57839;51.332;12.410;2023-06-24T02:45:36;19.10;;;12.70;;
70416;SDS011;57839;51.332;12.410;2023-06-24T02:48:03;18.45;;;11.80;;
70416;SDS011;57839;51.332;12.410;2023-06-24T02:50:29;20.30;;;12.75;;
70416;SDS011;57839;51.332;12.410;2023-06-24T02:52:55;19.83;;;13.10;;
70416;SDS011;57839;51.332;12.410;2023-06-24T02:55:22;13.75;;;11.57;;
70416;SDS011;57839;51.332;12.410;2023-06-24T02:57:48;18.25;;;12.25;;
70416;SDS011;57839;51.332;12.410;2023-06-24T03:00:14;16.25;;;12.00;;
70416;SDS011;57839;51.332;12.410;2023-06-24T03:02:41;18.15;;;13.68;;
70416;SDS011;57839;51.332;12.410;2023-06-24T03:05:08;17.95;;;12.05;;
70416;SDS011;57839;51.332;12.410;2023-06-24T03:07:34;20.17;;;13.70;;
70416;SDS011;57839;51.332;12.410;2023-06-24T03:10:02;18.48;;;11.73;;
70416;SDS011;57839;51.332;12.410;2023-06-24T03:12:28;18.95;;;12.50;;
70416;SDS011;57839;51.332;12.410;2023-06-24T03:14:54;19.25;;;12.57;;
70416;SDS011;57839;51.332;12.410;2023-06-24T03:17:20;16.27;;;12.35;;
70416;SDS011;57839;51.332;12.410;2023-06-24T03:19:45;18.67;;;12.80;;
70416;SDS011;57839;51.332;12.410;2023-06-24T03:22:11;16.40;;;12.00;;
70416;SDS011;57839;51.332;12.410;2023-06-24T03:24:37;16.58;;;11.45;;
70416;SDS011;57839;51.332;12.410;2023-06-24T03:27:03;20.63;;;13.10;;
70416;SDS011;57839;51.332;12.410;2023-06-24T03:29:29;15.05;;;11.98;;
70416;SDS011;57839;51.332;12.410;2023-06-24T03:31:54;16.27;;;11.25;;
70416;SDS011;57839;51.332;12.410;2023-06-24T03:34:20;17.40;;;12.27;;
70416;SDS011;57839;51.332;12.410;2023-06-24T03:36:46;16.85;;;12.43;;
70416;SDS011;57839;51.332;12.410;2023-06-24T03:39:11;16.77;;;12.52;;
70416;SDS011;57839;51.332;12.410;2023-06-24T03:41:37;18.15;;;11.95;;
70416;SDS011;57839;51.332;12.410;2023-06-24T03:44:04;13.20;;;11.75;;
70416;SDS011;57839;51.332;12.410;2023-06-24T03:46:30;16.85;;;10.90;;
70416;SDS011;57839;51.332;12.410;2023-06-24T03:48:58;16.77;;;10.93;;
70416;SDS011;57839;51.332;12.410;2023-06-24T03:51:24;18.25;;;11.45;;
70416;SDS011;57839;51.332;12.410;2023-06-24T03:53:49;14.50;;;10.73;;
70416;SDS011;57839;51.332;12.410;2023-06-24T03:56:15;11.82;;;10.52;;
70416;SDS011;57839;51.332;12.410;2023-06-24T03:58:41;16.38;;;11.40;;
70416;SDS011;57839;51.332;12.410;2023-06-24T04:01:06;13.98;;;10.90;;
70416;SDS011;57839;51.332;12.410;2023-06-24T04:03:32;16.55;;;11.48;;
70416;SDS011;57839;51.332;12.410;2023-06-24T04:05:58;17.42;;;12.00;;
70416;SDS011;57839;51.332;12.410;2023-06-24T04:08:23;14.15;;;10.50;;
70416;SDS011;57839;51.332;12.410;2023-06-24T04:10:54;16.58;;;11.43;;
70416;SDS011;57839;51.332;12.410;2023-06-24T04:13:20;15.07;;;11.00;;
70416;SDS011;57839;51.332;12.410;2023-06-24T04:15:46;13.88;;;11.00;;
70416;SDS011;57839;51.332;12.410;2023-06-24T04:18:12;13.15;;;11.20;;
70416;SDS011;57839;51.332;12.410;2023-06-24T04:20:37;16.92;;;11.50;;
70416;SDS011;57839;51.332;12.410;2023-06-24T04:23:03;12.13;;;10.25;;
70416;SDS011;57839;51.332;12.410;2023-06-24T04:25:30;16.42;;;11.68;;
70416;SDS011;57839;51.332;12.410;2023-06-24T04:27:56;12.30;;;10.25;;
70416;SDS011;57839;51.332;12.410;2023-06-24T04:30:22;12.35;;;10.18;;
70416;SDS011;57839;51.332;12.410;2023-06-24T04:32:48;14.25;;;10.80;;
70416;SDS011;57839;51.332;12.410;2023-06-24T04:35:13;16.67;;;11.18;;
70416;SDS011;57839;51.332;12.410;2023-06-24T04:37:39;15.05;;;11.48;;
70416;SDS011;57839;51.332;12.410;2023-06-24T04:40:05;14.00;;;10.98;;
70416;SDS011;57839;51.332;12.410;2023-06-24T04:42:31;18.88;;;11.68;;
70416;SDS011;57839;51.332;12.410;2023-06-24T04:44:56;14.05;;;10.65;;
70416;SDS011;57839;51.332;12.410;2023-06-24T04:47:22;14.32;;;10.57;;
70416;SDS011;57839;51.332;12.410;2023-06-24T04:49:48;14.45;;;11.48;;
70416;SDS011;57839;51.332;12.410;2023-06-24T04:52:13;14.65;;;11.05;;
70416;SDS011;57839;51.332;12.410;2023-06-24T04:54:40;18.95;;;11.93;;
70416;SDS011;57839;51.332;12.410;2023-06-24T04:57:07;12.55;;;11.02;;
70416;SDS011;57839;51.332;12.410;2023-06-24T04:59:34;13.90;;;11.02;;
70416;SDS011;57839;51.332;12.410;2023-06-24T05:01:59;13.93;;;11.15;;
70416;SDS011;57839;51.332;12.410;2023-06-24T05:04:25;18.05;;;11.18;;
70416;SDS011;57839;51.332;12.410;2023-06-24T05:06:50;15.18;;;10.93;;
70416;SDS011;57839;51.332;12.410;2023-06-24T05:09:16;14.43;;;11.10;;
70416;SDS011;57839;51.332;12.410;2023-06-24T05:11:42;15.18;;;10.73;;
70416;SDS011;57839;51.332;12.410;2023-06-24T05:14:08;11.98;;;10.30;;
70416;SDS011;57839;51.332;12.410;2023-06-24T05:16:35;16.20;;;11.15;;
70416;SDS011;57839;51.332;12.410;2023-06-24T05:19:01;14.68;;;10.45;;
70416;SDS011;57839;51.332;12.410;2023-06-24T05:21:26;16.83;;;11.95;;
70416;SDS011;57839;51.332;12.410;2023-06-24T05:23:52;14.38;;;10.73;;
70416;SDS011;57839;51.332;12.410;2023-06-24T05:26:17;14.10;;;10.73;;
70416;SDS011;57839;51.332;12.410;2023-06-24T05:28:43;14.52;;;11.60;;
70416;SDS011;57839;51.332;12.410;2023-06-24T05:31:09;12.90;;;11.00;;
70416;SDS011;57839;51.332;12.410;2023-06-24T05:33:34;11.73;;;10.48;;
70416;SDS011;57839;51.332;12.410;2023-06-24T05:36:00;18.05;;;11.60;;
70416;SDS011;57839;51.332;12.410;2023-06-24T05:38:26;13.20;;;11.02;;
70416;SDS011;57839;51.332;12.410;2023-06-24T05:40:51;13.00;;;10.23;;
70416;SDS011;57839;51.332;12.410;2023-06-24T05:43:17;12.02;;;10.43;;
70416;SDS011;57839;51.332;12.410;2023-06-24T05:45:42;13.15;;;10.30;;
70416;SDS011;57839;51.332;12.410;2023-06-24T05:48:08;14.65;;;11.55;;
70416;SDS011;57839;51.332;12.410;2023-06-24T05:50:34;16.98;;;11.13;;
70416;SDS011;57839;51.332;12.410;2023-06-24T05:52:59;13.45;;;10.73;;
70416;SDS011;57839;51.332;12.410;2023-06-24T05:55:25;14.70;;;10.35;;
70416;SDS011;57839;51.332;12.410;2023-06-24T05:57:50;13.35;;;9.55;;
70416;SDS011;57839;51.332;12.410;2023-06-24T06:00:17;14.00;;;11.75;;
70416;SDS011;57839;51.332;12.410;2023-06-24T06:02:43;15.27;;;11.02;;
70416;SDS011;57839;51.332;12.410;2023-06-24T06:05:09;13.50;;;10.35;;
70416;SDS011;57839;51.332;12.410;2023-06-24T06:07:34;16.25;;;10.98;;
70416;SDS011;57839;51.332;12.410;2023-06-24T06:10:02;17.63;;;12.30;;
70416;SDS011;57839;51.332;12.410;2023-06-24T06:12:28;14.80;;;10.35;;
70416;SDS011;57839;51.332;12.410;2023-06-24T06:14:54;17.20;;;10.95;;
70416;SDS011;57839;51.332;12.410;2023-06-24T06:17:19;13.13;;;10.23;;
70416;SDS011;57839;51.332;12.410;2023-06-24T06:19:45;15.93;;;11.25;;
70416;SDS011;57839;51.332;12.410;2023-06-24T06:22:12;13.63;;;11.25;;
70416;SDS011;57839;51.332;12.410;2023-06-24T06:24:39;16.25;;;10.95;;
70416;SDS011;57839;51.332;12.410;2023-06-24T06:27:04;16.25;;;11.13;;
70416;SDS011;57839;51.332;12.410;2023-06-24T06:29:30;17.17;;;11.98;;
70416;SDS011;57839;51.332;12.410;2023-06-24T06:31:56;17.67;;;12.52;;
70416;SDS011;57839;51.332;12.410;2023-06-24T06:34:22;13.25;;;10.70;;
70416;SDS011;57839;51.332;12.410;2023-06-24T06:36:47;16.20;;;11.05;;
70416;SDS011;57839;51.332;12.410;2023-06-24T06:39:13;17.33;;;12.10;;
70416;SDS011;57839;51.332;12.410;2023-06-24T06:41:38;16.58;;;11.25;;
70416;SDS011;57839;51.332;12.410;2023-06-24T06:44:04;13.10;;;11.02;;
70416;SDS011;57839;51.332;12.410;2023-06-24T06:46:30;13.23;;;10.25;;
70416;SDS011;57839;51.332;12.410;2023-06-24T06:48:55;14.80;;;10.88;;
70416;SDS011;57839;51.332;12.410;2023-06-24T06:51:21;14.40;;;10.50;;
70416;SDS011;57839;51.332;12.410;2023-06-24T06:53:49;14.13;;;10.90;;
70416;SDS011;57839;51.332;12.410;2023-06-24T06:56:18;13.63;;;10.85;;
70416;SDS011;57839;51.332;12.410;2023-06-24T06:58:44;14.70;;;11.15;;
70416;SDS011;57839;51.332;12.410;2023-06-24T07:01:10;12.13;;;10.00;;
70416;SDS011;57839;51.332;12.410;2023-06-24T07:03:35;13.10;;;10.27;;
70416;SDS011;57839;51.332;12.410;2023-06-24T07:06:01;14.93;;;11.30;;
70416;SDS011;57839;51.332;12.410;2023-06-24T07:08:26;16.55;;;11.32;;
70416;SDS011;57839;51.332;12.410;2023-06-24T07:10:52;14.38;;;10.77;;
70416;SDS011;57839;51.332;12.410;2023-06-24T07:13:18;14.80;;;11.10;;
70416;SDS011;57839;51.332;12.410;2023-06-24T07:15:43;15.00;;;11.07;;
70416;SDS011;57839;51.332;12.410;2023-06-24T07:18:09;13.50;;;10.77;;
70416;SDS011;57839;51.332;12.410;2023-06-24T07:20:35;15.55;;;11.15;;
70416;SDS011;57839;51.332;12.410;2023-06-24T07:23:00;12.38;;;9.57;;
70416;SDS011;57839;51.332;12.410;2023-06-24T07:25:26;12.30;;;10.60;;
70416;SDS011;57839;51.332;12.410;2023-06-24T07:27:53;13.35;;;10.57;;
70416;SDS011;57839;51.332;12.410;2023-06-24T07:30:19;13.50;;;10.75;;
70416;SDS011;57839;51.332;12.410;2023-06-24T07:32:44;12.55;;;9.70;;
70416;SDS011;57839;51.332;12.410;2023-06-24T07:35:10;11.80;;;9.80;;
70416;SDS011;57839;51.332;12.410;2023-06-24T07:37:36;16.98;;;11.00;;
70416;SDS011;57839;51.332;12.410;2023-06-24T07:40:04;15.10;;;10.95;;
70416;SDS011;57839;51.332;12.410;2023-06-24T07:42:31;14.40;;;10.45;;
70416;SDS011;57839;51.332;12.410;2023-06-24T07:44:56;14.85;;;10.25;;
70416;SDS011;57839;51.332;12.410;2023-06-24T07:47:22;11.82;;;9.65;;
70416;SDS011;57839;51.332;12.410;2023-06-24T07:49:48;11.73;;;9.95;;
70416;SDS011;57839;51.332;12.410;2023-06-24T07:52:14;12.50;;;9.68;;
70416;SDS011;57839;51.332;12.410;2023-06-24T07:54:40;11.63;;;9.43;;
70416;SDS011;57839;51.332;12.410;2023-06-24T07:57:06;10.93;;;9.45;;
70416;SDS011;57839;51.332;12.410;2023-06-24T07:59:32;14.23;;;9.95;;
70416;SDS011;57839;51.332;12.410;2023-06-24T08:01:58;10.57;;;9.13;;
70416;SDS011;57839;51.332;12.410;2023-06-24T08:04:23;10.55;;;9.23;;
70416;SDS011;57839;51.332;12.410;2023-06-24T08:06:49;12.25;;;9.07;;
70416;SDS011;57839;51.332;12.410;2023-06-24T08:09:15;10.90;;;9.15;;
70416;SDS011;57839;51.332;12.410;2023-06-24T08:11:42;14.50;;;9.30;;
70416;SDS011;57839;51.332;12.410;2023-06-24T08:14:08;13.13;;;8.90;;
70416;SDS011;57839;51.332;12.410;2023-06-24T08:16:34;12.15;;;9.70;;
70416;SDS011;57839;51.332;12.410;2023-06-24T08:18:59;12.80;;;8.90;;
70416;SDS011;57839;51.332;12.410;2023-06-24T08:21:25;11.02;;;9.05;;
70416;SDS011;57839;51.332;12.410;2023-06-24T08:23:51;11.13;;;9.10;;
70416;SDS011;57839;51.332;12.410;2023-06-24T08:26:17;11.70;;;9.25;;
70416;SDS011;57839;51.332;12.410;2023-06-24T08:28:46;10.55;;;8.52;;
70416;SDS011;57839;51.332;12.410;2023-06-24T08:31:12;10.23;;;8.68;;
70416;SDS011;57839;51.332;12.410;2023-06-24T08:33:37;9.90;;;8.57;;
70416;SDS011;57839;51.332;12.410;2023-06-24T08:36:03;21.02;;;15.23;;
70416;SDS011;57839;51.332;12.410;2023-06-24T08:38:29;13.77;;;10.68;;
70416;SDS011;57839;51.332;12.410;2023-06-24T08:40:54;11.20;;;9.15;;
70416;SDS011;57839;51.332;12.410;2023-06-24T08:43:21;9.00;;;7.57;;
70416;SDS011;57839;51.332;12.410;2023-06-24T08:45:46;11.57;;;7.00;;
70416;SDS011;57839;51.332;12.410;2023-06-24T08:48:12;7.95;;;7.15;;
70416;SDS011;57839;51.332;12.410;2023-06-24T08:50:43;9.82;;;7.00;;
70416;SDS011;57839;51.332;12.410;2023-06-24T08:53:10;9.57;;;7.60;;
70416;SDS011;57839;51.332;12.410;2023-06-24T08:55:43;9.15;;;6.65;;
70416;SDS011;57839;51.332;12.410;2023-06-24T08:58:09;7.50;;;6.70;;
70416;SDS011;57839;51.332;12.410;2023-06-24T09:00:34;7.97;;;7.18;;
70416;SDS011;57839;51.332;12.410;2023-06-24T09:03:00;32.00;;;26.60;;
70416;SDS011;57839;51.332;12.410;2023-06-24T09:05:26;17.42;;;11.80;;
70416;SDS011;57839;51.332;12.410;2023-06-24T09:07:52;9.43;;;7.35;;
70416;SDS011;57839;51.332;12.410;2023-06-24T09:10:31;7.63;;;6.82;;
70416;SDS011;57839;51.332;12.410;2023-06-24T09:12:58;8.65;;;6.55;;
70416;SDS011;57839;51.332;12.410;2023-06-24T09:15:33;11.00;;;6.88;;
70416;SDS011;57839;51.332;12.410;2023-06-24T09:18:00;8.63;;;6.75;;
70416;SDS011;57839;51.332;12.410;2023-06-24T09:20:26;9.02;;;6.70;;
70416;SDS011;57839;51.332;12.410;2023-06-24T09:22:57;8.05;;;5.88;;
70416;SDS011;57839;51.332;12.410;2023-06-24T09:25:26;9.25;;;7.05;;
70416;SDS011;57839;51.332;12.410;2023-06-24T09:27:52;10.32;;;7.22;;
70416;SDS011;57839;51.332;12.410;2023-06-24T09:30:24;9.20;;;6.43;;
70416;SDS011;57839;51.332;12.410;2023-06-24T09:32:50;13.60;;;9.65;;
70416;SDS011;57839;51.332;12.410;2023-06-24T09:35:20;25.63;;;20.00;;
70416;SDS011;57839;51.332;12.410;2023-06-24T09:37:50;8.15;;;5.90;;
70416;SDS011;57839;51.332;12.410;2023-06-24T09:40:16;9.23;;;6.85;;
70416;SDS011;57839;51.332;12.410;2023-06-24T09:42:52;7.55;;;5.95;;
70416;SDS011;57839;51.332;12.410;2023-06-24T09:45:36;6.80;;;5.57;;
70416;SDS011;57839;51.332;12.410;2023-06-24T09:48:02;8.32;;;6.00;;
70416;SDS011;57839;51.332;12.410;2023-06-24T09:50:28;9.35;;;6.25;;
70416;SDS011;57839;51.332;12.410;2023-06-24T09:52:53;11.45;;;7.30;;
70416;SDS011;57839;51.332;12.410;2023-06-24T09:55:21;8.35;;;6.57;;
70416;SDS011;57839;51.332;12.410;2023-06-24T09:57:47;7.40;;;6.18;;
70416;SDS011;57839;51.332;12.410;2023-06-24T10:00:16;7.53;;;5.50;;
70416;SDS011;57839;51.332;12.410;2023-06-24T10:02:44;7.78;;;5.88;;
70416;SDS011;57839;51.332;12.410;2023-06-24T10:05:11;8.93;;;5.47;;
70416;SDS011;57839;51.332;12.410;2023-06-24T10:07:41;7.63;;;6.13;;
70416;SDS011;57839;51.332;12.410;2023-06-24T10:10:07;6.13;;;5.53;;
70416;SDS011;57839;51.332;12.410;2023-06-24T10:12:37;6.35;;;5.18;;
70416;SDS011;57839;51.332;12.410;2023-06-24T10:15:03;6.07;;;5.10;;
70416;SDS011;57839;51.332;12.410;2023-06-24T10:17:30;4.93;;;4.53;;
70416;SDS011;57839;51.332;12.410;2023-06-24T10:19:56;6.07;;;4.90;;
70416;SDS011;57839;51.332;12.410;2023-06-24T10:22:24;6.38;;;4.93;;
70416;SDS011;57839;51.332;12.410;2023-06-24T10:24:51;9.10;;;5.00;;
70416;SDS011;57839;51.332;12.410;2023-06-24T10:27:18;7.13;;;5.30;;
70416;SDS011;57839;51.332;12.410;2023-06-24T10:29:50;5.50;;;5.00;;
70416;SDS011;57839;51.332;12.410;2023-06-24T10:32:19;6.03;;;5.20;;
70416;SDS011;57839;51.332;12.410;2023-06-24T10:34:47;5.97;;;5.43;;
70416;SDS011;57839;51.332;12.410;2023-06-24T10:39:52;5.75;;;4.38;;
70416;SDS011;57839;51.332;12.410;2023-06-24T10:42:28;5.28;;;4.43;;
70416;SDS011;57839;51.332;12.410;2023-06-24T10:45:12;5.38;;;4.50;;
70416;SDS011;57839;51.332;12.410;2023-06-24T10:47:40;4.72;;;4.28;;
70416;SDS011;57839;51.332;12.410;2023-06-24T10:50:13;6.50;;;4.80;;
70416;SDS011;57839;51.332;12.410;2023-06-24T10:52:44;5.65;;;4.30;;
70416;SDS011;57839;51.332;12.410;2023-06-24T10:55:13;5.50;;;4.32;;
70416;SDS011;57839;51.332;12.410;2023-06-24T10:57:40;5.47;;;4.07;;
70416;SDS011;57839;51.332;12.410;2023-06-24T11:00:06;5.82;;;4.28;;
70416;SDS011;57839;51.332;12.410;2023-06-24T11:02:32;5.70;;;4.75;;
70416;SDS011;57839;51.332;12.410;2023-06-24T11:05:01;4.40;;;3.97;;
70416;SDS011;57839;51.332;12.410;2023-06-24T11:07:28;5.60;;;4.35;;
70416;SDS011;57839;51.332;12.410;2023-06-24T11:10:00;4.57;;;4.05;;
70416;SDS011;57839;51.332;12.410;2023-06-24T11:12:41;14.50;;;12.48;;
70416;SDS011;57839;51.332;12.410;2023-06-24T11:15:08;6.60;;;5.97;;
70416;SDS011;57839;51.332;12.410;2023-06-24T11:17:36;6.53;;;4.00;;
70416;SDS011;57839;51.332;12.410;2023-06-24T11:20:06;4.85;;;3.80;;
70416;SDS011;57839;51.332;12.410;2023-06-24T11:22:33;5.60;;;3.97;;
70416;SDS011;57839;51.332;12.410;2023-06-24T11:24:58;4.32;;;3.92;;
70416;SDS011;57839;51.332;12.410;2023-06-24T11:27:27;4.50;;;3.78;;
70416;SDS011;57839;51.332;12.410;2023-06-24T11:29:54;4.10;;;3.25;;
70416;SDS011;57839;51.332;12.410;2023-06-24T11:32:23;3.90;;;3.50;;
70416;SDS011;57839;51.332;12.410;2023-06-24T11:34:49;4.40;;;3.58;;
70416;SDS011;57839;51.332;12.410;2023-06-24T11:37:16;6.20;;;3.70;;
70416;SDS011;57839;51.332;12.410;2023-06-24T11:39:43;3.80;;;3.33;;
70416;SDS011;57839;51.332;12.410;2023-06-24T11:42:10;4.60;;;3.70;;
70416;SDS011;57839;51.332;12.410;2023-06-24T11:44:40;5.57;;;3.70;;
70416;SDS011;57839;51.332;12.410;2023-06-24T11:47:08;4.47;;;3.45;;
70416;SDS011;57839;51.332;12.410;2023-06-24T11:49:51;4.70;;;3.35;;
70416;SDS011;57839;51.332;12.410;2023-06-24T11:52:27;4.10;;;3.70;;
70416;SDS011;57839;51.332;12.410;2023-06-24T11:55:21;5.00;;;3.65;;
70416;SDS011;57839;51.332;12.410;2023-06-24T11:57:58;4.25;;;3.47;;
70416;SDS011;57839;51.332;12.410;2023-06-24T12:00:27;18.20;;;15.05;;
70416;SDS011;57839;51.332;12.410;2023-06-24T12:02:57;5.65;;;4.72;;
70416;SDS011;57839;51.332;12.410;2023-06-24T12:05:30;3.83;;;3.42;;
70416;SDS011;57839;51.332;12.410;2023-06-24T12:07:58;5.00;;;3.83;;
70416;SDS011;57839;51.332;12.410;2023-06-24T12:10:25;5.25;;;4.32;;
70416;SDS011;57839;51.332;12.410;2023-06-24T12:12:52;3.60;;;3.30;;
70416;SDS011;57839;51.332;12.410;2023-06-24T12:15:18;5.10;;;3.30;;
70416;SDS011;57839;51.332;12.410;2023-06-24T12:17:44;4.03;;;3.67;;
70416;SDS011;57839;51.332;12.410;2023-06-24T12:20:09;5.85;;;3.40;;
70416;SDS011;57839;51.332;12.410;2023-06-24T12:22:36;3.72;;;3.42;;
70416;SDS011;57839;51.332;12.410;2023-06-24T12:25:02;3.53;;;3.22;;
70416;SDS011;57839;51.332;12.410;2023-06-24T12:27:29;3.67;;;3.38;;
70416;SDS011;57839;51.332;12.410;2023-06-24T12:29:54;3.58;;;3.20;;
70416;SDS011;57839;51.332;12.410;2023-06-24T12:32:20;4.53;;;3.67;;
70416;SDS011;57839;51.332;12.410;2023-06-24T12:34:45;4.13;;;3.38;;
70416;SDS011;57839;51.332;12.410;2023-06-24T12:37:11;4.13;;;3.58;;
70416;SDS011;57839;51.332;12.410;2023-06-24T12:39:37;3.90;;;3.53;;
70416;SDS011;57839;51.332;12.410;2023-06-24T12:42:02;3.63;;;3.33;;
70416;SDS011;57839;51.332;12.410;2023-06-24T12:44:28;4.22;;;3.45;;
70416;SDS011;57839;51.332;12.410;2023-06-24T12:46:54;3.90;;;3.60;;
70416;SDS011;57839;51.332;12.410;2023-06-24T12:49:19;5.03;;;3.40;;
70416;SDS011;57839;51.332;12.410;2023-06-24T12:51:45;4.72;;;3.80;;
70416;SDS011;57839;51.332;12.410;2023-06-24T12:54:11;4.30;;;3.90;;
70416;SDS011;57839;51.332;12.410;2023-06-24T12:56:36;3.42;;;3.13;;
70416;SDS011;57839;51.332;12.410;2023-06-24T12:59:02;5.28;;;3.70;;
70416;SDS011;57839;51.332;12.410;2023-06-24T13:01:28;3.90;;;3.55;;
70416;SDS011;57839;51.332;12.410;2023-06-24T13:03:53;3.60;;;3.28;;
70416;SDS011;57839;51.332;12.410;2023-06-24T13:06:19;3.90;;;3.55;;
70416;SDS011;57839;51.332;12.410;2023-06-24T13:08:44;3.70;;;3.40;;
70416;SDS011;57839;51.332;12.410;2023-06-24T13:11:10;4.20;;;3.45;;
70416;SDS011;57839;51.332;12.410;2023-06-24T13:13:36;6.43;;;3.85;;
70416;SDS011;57839;51.332;12.410;2023-06-24T13:16:01;3.83;;;3.47;;
70416;SDS011;57839;51.332;12.410;2023-06-24T13:18:27;3.53;;;3.22;;
70416;SDS011;57839;51.332;12.410;2023-06-24T13:20:53;3.58;;;3.28;;
70416;SDS011;57839;51.332;12.410;2023-06-24T13:23:18;55.85;;;42.88;;
70416;SDS011;57839;51.332;12.410;2023-06-24T13:25:44;11.02;;;9.90;;
70416;SDS011;57839;51.332;12.410;2023-06-24T13:28:09;4.25;;;3.70;;
70416;SDS011;57839;51.332;12.410;2023-06-24T13:30:35;5.00;;;3.47;;
70416;SDS011;57839;51.332;12.410;2023-06-24T13:33:01;3.33;;;3.03;;
70416;SDS011;57839;51.332;12.410;2023-06-24T13:35:26;3.20;;;2.90;;
70416;SDS011;57839;51.332;12.410;2023-06-24T13:37:52;3.67;;;3.28;;
70416;SDS011;57839;51.332;12.410;2023-06-24T13:40:17;3.20;;;2.83;;
70416;SDS011;57839;51.332;12.410;2023-06-24T13:42:43;3.30;;;2.95;;
70416;SDS011;57839;51.332;12.410;2023-06-24T13:45:09;4.05;;;3.25;;
70416;SDS011;57839;51.332;12.410;2023-06-24T13:47:36;3.85;;;3.55;;
70416;SDS011;57839;51.332;12.410;2023-06-24T13:50:02;3.63;;;3.25;;
70416;SDS011;57839;51.332;12.410;2023-06-24T13:52:28;3.88;;;3.28;;
70416;SDS011;57839;51.332;12.410;2023-06-24T13:54:54;4.80;;;3.58;;
70416;SDS011;57839;51.332;12.410;2023-06-24T13:57:20;4.10;;;3.33;;
70416;SDS011;57839;51.332;12.410;2023-06-24T13:59:45;3.67;;;2.92;;
70416;SDS011;57839;51.332;12.410;2023-06-24T14:02:11;3.45;;;2.90;;
70416;SDS011;57839;51.332;12.410;2023-06-24T14:04:37;4.05;;;3.53;;
70416;SDS011;57839;51.332;12.410;2023-06-24T14:07:05;3.53;;;3.15;;
70416;SDS011;57839;51.332;12.410;2023-06-24T14:09:31;3.53;;;3.22;;
70416;SDS011;57839;51.332;12.410;2023-06-24T14:11:56;4.28;;;3.67;;
70416;SDS011;57839;51.332;12.410;2023-06-24T14:14:22;3.40;;;3.10;;
70416;SDS011;57839;51.332;12.410;2023-06-24T14:16:48;3.78;;;3.40;;
70416;SDS011;57839;51.332;12.410;2023-06-24T14:19:14;4.13;;;3.10;;
70416;SDS011;57839;51.332;12.410;2023-06-24T14:21:39;3.35;;;2.88;;
70416;SDS011;57839;51.332;12.410;2023-06-24T14:24:05;3.55;;;3.10;;
70416;SDS011;57839;51.332;12.410;2023-06-24T14:26:33;3.67;;;3.10;;
70416;SDS011;57839;51.332;12.410;2023-06-24T14:28:59;3.90;;;3.00;;
70416;SDS011;57839;51.332;12.410;2023-06-24T14:31:26;4.57;;;3.30;;
70416;SDS011;57839;51.332;12.410;2023-06-24T14:33:52;3.00;;;2.70;;